createdAt,value
2023-02-08T00:00:58.903Z,42.50
2023-02-08T00:02:02.430Z,39.20
2023-02-08T00:03:05.754Z,39.00
2023-02-08T00:04:08.776Z,39.00
2023-02-08T00:05:11.720Z,36.70
2023-02-08T00:06:15.424Z,42.10
2023-02-08T00:07:18.379Z,42.70
2023-02-08T00:08:21.529Z,39.10
2023-02-08T00:09:24.510Z,40.30
2023-02-08T00:10:27.973Z,38.00
2023-02-08T00:11:30.847Z,39.80
2023-02-08T00:12:37.899Z,42.80
2023-02-08T00:13:42.261Z,38.60
2023-02-08T00:14:45.406Z,40.50
2023-02-08T00:15:48.616Z,40.60
2023-02-08T00:16:51.627Z,40.00
2023-02-08T00:17:54.495Z,39.40
2023-02-08T00:18:57.446Z,39.20
2023-02-08T00:20:00.563Z,40.10
2023-02-08T00:21:08.865Z,41.90
2023-02-08T00:22:11.748Z,40.50
2023-02-08T00:23:15.589Z,40.00
2023-02-08T00:24:18.433Z,42.90
2023-02-08T00:25:21.407Z,44.30
2023-02-08T00:26:24.309Z,45.10
2023-02-08T00:27:27.303Z,40.10
2023-02-08T00:28:30.312Z,44.00
2023-02-08T00:29:33.658Z,40.20
2023-02-08T00:30:36.608Z,43.00
2023-02-08T00:31:40.022Z,38.70
2023-02-08T00:32:43.037Z,38.20
2023-02-08T00:33:46.133Z,38.70
2023-02-08T00:34:49.138Z,40.10
2023-02-08T00:35:52.044Z,40.70
2023-02-08T00:36:55.773Z,41.90
2023-02-08T00:37:58.798Z,41.00
2023-02-08T00:39:02.484Z,40.30
2023-02-08T00:40:07.220Z,40.20
2023-02-08T00:41:10.273Z,39.70
2023-02-08T00:42:13.181Z,42.60
2023-02-08T00:43:16.031Z,37.60
2023-02-08T00:44:19.028Z,37.80
2023-02-08T00:45:21.919Z,35.40
2023-02-08T00:46:25.013Z,32.80
2023-02-08T00:47:29.114Z,32.00
2023-02-08T00:48:33.423Z,37.40
2023-02-08T00:49:36.514Z,37.70
2023-02-08T00:50:39.736Z,36.70
2023-02-08T00:51:43.029Z,36.30
2023-02-08T00:52:46.288Z,36.20
2023-02-08T00:53:49.431Z,36.30
2023-02-08T00:54:52.441Z,37.70
2023-02-08T00:55:56.409Z,38.60
2023-02-08T00:56:59.275Z,36.90
2023-02-08T00:58:02.134Z,40.10
2023-02-08T00:59:06.255Z,36.60
2023-02-08T01:00:10.086Z,34.50
2023-02-08T01:01:14.204Z,33.90
2023-02-08T01:02:17.108Z,34.80
2023-02-08T01:03:23.207Z,35.40
2023-02-08T01:04:27.310Z,38.30
2023-02-08T01:05:30.125Z,38.80
2023-02-08T01:06:33.728Z,37.30
2023-02-08T01:07:37.937Z,35.80
2023-02-08T01:08:40.817Z,34.20
2023-02-08T01:09:43.700Z,31.40
2023-02-08T01:10:47.633Z,33.60
2023-02-08T01:11:50.650Z,39.60
2023-02-08T01:12:55.683Z,34.60
2023-02-08T01:13:58.750Z,38.10
2023-02-08T01:15:01.657Z,33.40
2023-02-08T01:16:07.950Z,34.40
2023-02-08T01:17:10.823Z,35.40
2023-02-08T01:18:13.900Z,36.70
2023-02-08T01:19:18.195Z,27.20
2023-02-08T01:20:21.086Z,29.50
2023-02-08T01:21:27.856Z,30.70
2023-02-08T01:22:31.706Z,33.40
2023-02-08T01:23:37.119Z,32.60
2023-02-08T01:24:40.070Z,32.40
2023-02-08T01:25:42.914Z,33.90
2023-02-08T01:26:45.761Z,34.50
2023-02-08T01:27:48.692Z,32.10
2023-02-08T01:28:52.770Z,29.20
2023-02-08T01:29:55.794Z,36.20
2023-02-08T01:30:59.452Z,32.30
2023-02-08T01:32:02.352Z,34.10
2023-02-08T01:33:05.864Z,32.80
2023-02-08T01:34:10.836Z,36.10
2023-02-08T01:35:14.027Z,31.70
2023-02-08T01:36:17.553Z,34.30
2023-02-08T01:37:20.422Z,34.60
2023-02-08T01:38:23.622Z,32.50
2023-02-08T01:39:27.484Z,32.20
2023-02-08T01:40:30.411Z,35.50
2023-02-08T01:41:37.054Z,36.20
2023-02-08T01:42:40.007Z,32.70
2023-02-08T01:44:07.146Z,40.00
2023-02-08T01:45:16.154Z,36.30
2023-02-08T01:46:19.013Z,33.90
2023-02-08T01:47:22.065Z,35.30
2023-02-08T01:48:56.337Z,33.30
2023-02-08T01:49:59.321Z,36.50
2023-02-08T01:51:16.257Z,35.50
2023-02-08T01:52:23.615Z,34.30
2023-02-08T01:53:29.394Z,32.40
2023-02-08T01:54:51.181Z,32.40
2023-02-08T01:55:59.577Z,32.60
2023-02-08T01:57:02.946Z,32.20
2023-02-08T01:58:10.056Z,33.30
2023-02-08T01:59:40.995Z,34.30
2023-02-08T02:00:45.749Z,38.10
2023-02-08T02:01:52.600Z,33.50
2023-02-08T02:02:59.299Z,37.40
2023-02-08T02:04:04.995Z,35.80
2023-02-08T02:05:08.929Z,38.70
2023-02-08T02:06:17.139Z,36.60
2023-02-08T02:07:22.881Z,35.30
2023-02-08T02:08:25.853Z,34.10
2023-02-08T02:09:40.196Z,36.40
2023-02-08T02:10:43.751Z,33.60
2023-02-08T02:11:46.681Z,33.10
2023-02-08T02:12:50.974Z,33.20
2023-02-08T02:13:54.163Z,37.50
2023-02-08T02:14:57.085Z,37.00
2023-02-08T02:15:59.941Z,32.30
2023-02-08T02:17:02.796Z,36.20
2023-02-08T02:18:08.638Z,34.90
2023-02-08T02:19:21.523Z,32.90
2023-02-08T02:20:46.584Z,30.30
2023-02-08T02:21:55.410Z,32.30
2023-02-08T02:23:04.063Z,32.20
2023-02-08T02:24:54.579Z,32.10
2023-02-08T02:26:13.682Z,30.10
2023-02-08T02:28:01.426Z,34.70
2023-02-08T02:29:22.916Z,28.00
2023-02-08T02:31:02.351Z,31.60
2023-02-08T02:32:23.118Z,30.50
2023-02-08T02:33:32.348Z,28.80
2023-02-08T02:34:45.393Z,30.50
2023-02-08T02:36:14.731Z,32.90
2023-02-08T02:37:42.674Z,28.50
2023-02-08T02:38:45.732Z,26.70
2023-02-08T02:39:55.645Z,28.80
2023-02-08T02:42:44.970Z,27.30
2023-02-08T02:43:56.130Z,28.40
2023-02-08T02:45:15.229Z,30.20
2023-02-08T02:46:32.348Z,30.10
2023-02-08T02:47:54.172Z,26.10
2023-02-08T02:49:01.157Z,28.10
2023-02-08T02:50:10.652Z,29.80
2023-02-08T02:51:36.322Z,27.70
2023-02-08T02:52:48.509Z,27.60
2023-02-08T02:54:07.217Z,30.90
2023-02-08T02:55:16.719Z,31.20
2023-02-08T02:56:27.430Z,28.80
2023-02-08T02:57:33.198Z,30.90
2023-02-08T02:58:38.609Z,32.40
2023-02-08T02:59:43.094Z,34.10
2023-02-08T03:00:55.851Z,31.70
2023-02-08T03:01:58.843Z,27.80
2023-02-08T03:03:01.929Z,33.70
2023-02-08T03:04:18.522Z,34.50
2023-02-08T03:05:21.972Z,29.80
2023-02-08T03:06:56.314Z,27.80
2023-02-08T03:08:14.240Z,28.90
2023-02-08T03:09:40.463Z,29.50
2023-02-08T03:10:52.777Z,29.10
2023-02-08T03:12:27.940Z,32.50
2023-02-08T03:14:08.891Z,31.90
2023-02-08T03:15:17.541Z,32.00
2023-02-08T03:17:02.723Z,29.80
2023-02-08T03:18:30.881Z,33.30
2023-02-08T03:19:39.424Z,28.10
2023-02-08T03:21:09.205Z,34.60
2023-02-08T03:22:17.143Z,29.30
2023-02-08T03:23:28.727Z,30.30
2023-02-08T03:24:40.196Z,32.70
2023-02-08T03:26:00.039Z,32.60
2023-02-08T03:27:10.213Z,33.20
2023-02-08T03:28:23.952Z,32.10
2023-02-08T03:29:59.778Z,30.30
2023-02-08T03:31:18.208Z,30.80
2023-02-08T03:32:32.802Z,35.20
2023-02-08T03:33:48.451Z,33.90
2023-02-08T03:35:05.751Z,33.90
2023-02-08T03:36:25.828Z,32.30
2023-02-08T03:37:42.566Z,33.50
2023-02-08T03:38:48.174Z,30.90
2023-02-08T03:39:58.535Z,33.00
2023-02-08T03:41:04.636Z,34.10
2023-02-08T03:42:19.694Z,31.80
2023-02-08T03:44:01.607Z,35.20
2023-02-08T03:45:39.762Z,38.80
2023-02-08T03:46:53.159Z,31.00
2023-02-08T03:48:00.372Z,28.80
2023-02-08T03:49:11.372Z,30.00
2023-02-08T03:50:19.674Z,33.40
2023-02-08T03:51:25.823Z,29.40
2023-02-08T03:52:30.811Z,36.90
2023-02-08T03:53:39.491Z,33.30
2023-02-08T03:54:49.822Z,36.20
2023-02-08T03:55:58.833Z,31.90
2023-02-08T03:57:17.994Z,35.30
2023-02-08T03:58:28.965Z,30.60
2023-02-08T03:59:39.821Z,35.40
2023-02-08T04:00:49.459Z,34.80
2023-02-08T04:01:59.088Z,35.00
2023-02-08T04:03:25.104Z,33.80
2023-02-08T04:04:34.459Z,36.10
2023-02-08T04:05:37.797Z,32.80
2023-02-08T04:06:40.779Z,39.00
2023-02-08T04:07:43.770Z,34.30
2023-02-08T04:08:46.694Z,38.40
2023-02-08T04:09:49.610Z,34.50
2023-02-08T04:10:52.551Z,36.60
2023-02-08T04:11:55.453Z,35.00
2023-02-08T04:12:58.919Z,33.60
2023-02-08T04:14:01.839Z,35.20
2023-02-08T04:15:05.607Z,33.40
2023-02-08T04:16:11.885Z,35.40
2023-02-08T04:17:15.227Z,35.20
2023-02-08T04:18:18.263Z,34.50
2023-02-08T04:19:21.249Z,34.20
2023-02-08T04:20:24.135Z,35.40
2023-02-08T04:21:27.525Z,38.00
2023-02-08T04:22:30.621Z,39.30
2023-02-08T04:23:33.445Z,36.90
2023-02-08T04:24:36.303Z,35.80
2023-02-08T04:25:39.182Z,35.40
2023-02-08T04:26:42.094Z,35.80
2023-02-08T04:27:45.255Z,41.40
2023-02-08T04:28:48.103Z,37.00
2023-02-08T04:29:51.042Z,33.80
2023-02-08T04:30:57.339Z,40.40
2023-02-08T04:32:00.710Z,37.50
2023-02-08T04:33:03.977Z,35.70
2023-02-08T04:34:07.117Z,36.70
2023-02-08T04:35:10.113Z,34.70
2023-02-08T04:36:13.117Z,36.00
2023-02-08T04:37:16.074Z,38.90
2023-02-08T04:38:19.335Z,40.10
2023-02-08T04:39:22.283Z,36.90
2023-02-08T04:40:25.166Z,40.00
2023-02-08T04:41:28.153Z,33.10
2023-02-08T04:42:31.019Z,36.40
2023-02-08T04:43:33.931Z,41.20
2023-02-08T04:44:36.775Z,44.40
2023-02-08T04:45:39.659Z,44.30
2023-02-08T04:46:42.525Z,43.00
2023-02-08T04:47:45.451Z,45.20
2023-02-08T04:48:48.381Z,47.70
2023-02-08T04:49:51.435Z,45.30
2023-02-08T04:50:58.834Z,43.20
2023-02-08T04:52:01.789Z,44.50
2023-02-08T04:53:04.655Z,46.30
2023-02-08T04:54:08.136Z,51.60
2023-02-08T04:55:11.023Z,47.10
2023-02-08T04:56:14.702Z,51.40
2023-02-08T04:57:17.832Z,43.50
2023-02-08T04:58:20.680Z,43.50
2023-02-08T04:59:23.711Z,46.10
2023-02-08T05:00:26.942Z,47.10
2023-02-08T05:01:29.903Z,48.60
2023-02-08T05:02:32.809Z,46.20
2023-02-08T05:03:35.931Z,42.10
2023-02-08T05:04:38.818Z,46.90
2023-02-08T05:05:42.451Z,46.00
2023-02-08T05:06:48.249Z,44.90
2023-02-08T05:07:51.918Z,45.70
2023-02-08T05:08:54.847Z,43.70
2023-02-08T05:09:57.718Z,43.90
2023-02-08T05:11:00.567Z,45.80
2023-02-08T05:12:03.546Z,46.40
2023-02-08T05:13:06.508Z,41.40
2023-02-08T05:14:09.367Z,45.80
2023-02-08T05:15:12.240Z,47.60
2023-02-08T05:16:15.396Z,43.10
2023-02-08T05:17:18.332Z,48.90
2023-02-08T05:18:21.612Z,44.60
2023-02-08T05:19:24.516Z,47.70
2023-02-08T05:20:27.451Z,44.20
2023-02-08T05:21:30.328Z,48.40
2023-02-08T05:22:33.871Z,45.90
2023-02-08T05:23:38.207Z,52.40
2023-02-08T05:24:41.063Z,47.30
2023-02-08T05:25:44.024Z,46.10
2023-02-08T05:26:46.875Z,47.20
2023-02-08T05:27:49.920Z,46.70
2023-02-08T05:28:52.807Z,46.00
2023-02-08T05:29:58.083Z,48.70
2023-02-08T05:31:18.169Z,44.70
2023-02-08T05:32:21.017Z,47.50
2023-02-08T05:33:23.913Z,46.80
2023-02-08T05:34:26.819Z,45.20
2023-02-08T05:35:29.695Z,42.90
2023-02-08T05:36:32.625Z,46.70
2023-02-08T05:37:35.778Z,44.10
2023-02-08T05:38:38.686Z,43.00
2023-02-08T05:39:41.561Z,46.90
2023-02-08T05:40:44.792Z,38.00
2023-02-08T05:41:47.817Z,40.00
2023-02-08T05:42:50.691Z,42.80
2023-02-08T05:43:53.588Z,42.70
2023-02-08T05:44:56.471Z,42.00
2023-02-08T05:45:59.366Z,41.40
2023-02-08T05:47:03.197Z,44.70
2023-02-08T05:48:06.230Z,42.80
2023-02-08T05:49:09.467Z,41.60
2023-02-08T05:50:12.311Z,38.90
2023-02-08T05:51:15.479Z,36.80
2023-02-08T05:52:18.357Z,36.00
2023-02-08T05:53:21.396Z,38.90
2023-02-08T05:54:24.350Z,39.40
2023-02-08T05:55:28.695Z,42.10
2023-02-08T05:56:31.998Z,44.60
2023-02-08T05:57:35.849Z,38.50
2023-02-08T05:58:38.810Z,44.50
2023-02-08T05:59:41.694Z,37.40
2023-02-08T06:00:44.768Z,42.70
2023-02-08T06:01:47.849Z,44.20
2023-02-08T06:02:50.729Z,41.10
2023-02-08T06:03:54.275Z,45.40
2023-02-08T06:04:57.098Z,41.70
2023-02-08T06:06:01.719Z,41.90
2023-02-08T06:07:04.588Z,38.80
2023-02-08T06:08:08.201Z,41.60
2023-02-08T06:09:11.662Z,40.80
2023-02-08T06:10:14.710Z,37.70
2023-02-08T06:11:19.430Z,40.90
2023-02-08T06:12:22.408Z,35.40
2023-02-08T06:13:25.445Z,45.10
2023-02-08T06:14:28.355Z,38.80
2023-02-08T06:15:31.623Z,36.10
2023-02-08T06:16:34.716Z,35.00
2023-02-08T06:17:37.785Z,40.90
2023-02-08T06:18:41.017Z,39.00
2023-02-08T06:19:43.839Z,39.90
2023-02-08T06:20:46.733Z,39.30
2023-02-08T06:21:49.692Z,38.00
2023-02-08T06:22:52.544Z,43.50
2023-02-08T06:23:55.751Z,41.70
2023-02-08T06:24:58.790Z,42.60
2023-02-08T06:26:02.122Z,39.70
2023-02-08T06:27:05.076Z,35.60
2023-02-08T06:28:11.223Z,43.40
2023-02-08T06:29:14.181Z,41.80
2023-02-08T06:30:17.130Z,41.10
2023-02-08T06:31:20.159Z,44.40
2023-02-08T06:32:23.102Z,41.80
2023-02-08T06:33:26.035Z,41.00
2023-02-08T06:34:28.972Z,42.90
2023-02-08T06:35:32.415Z,42.10
2023-02-08T06:36:35.258Z,42.70
2023-02-08T06:37:38.561Z,38.70
2023-02-08T06:38:42.217Z,44.40
2023-02-08T06:39:45.166Z,41.30
2023-02-08T06:40:49.484Z,40.80
2023-02-08T06:41:52.348Z,45.00
2023-02-08T06:42:55.239Z,42.50
2023-02-08T06:43:59.966Z,43.00
2023-02-08T06:45:02.907Z,42.90
2023-02-08T06:46:08.594Z,42.60
2023-02-08T06:47:11.663Z,42.50
2023-02-08T06:48:15.672Z,43.00
2023-02-08T06:49:18.846Z,48.30
2023-02-08T06:50:24.088Z,44.80
2023-02-08T06:51:27.578Z,41.90
2023-02-08T06:52:30.517Z,46.80
2023-02-08T06:53:33.454Z,44.50
2023-02-08T06:54:36.672Z,47.30
2023-02-08T06:55:39.652Z,47.60
2023-02-08T06:56:43.604Z,46.60
2023-02-08T06:57:46.464Z,46.20
2023-02-08T06:58:49.370Z,48.40
2023-02-08T06:59:52.466Z,49.40
2023-02-08T07:00:55.384Z,44.00
2023-02-08T07:02:00.900Z,49.10
2023-02-08T07:03:04.100Z,47.10
2023-02-08T07:04:07.029Z,43.80
2023-02-08T07:05:09.862Z,44.30
2023-02-08T07:06:17.904Z,50.60
2023-02-08T07:07:20.917Z,51.40
2023-02-08T07:08:23.760Z,53.30
2023-02-08T07:09:26.607Z,50.00
2023-02-08T07:10:29.463Z,47.40
2023-02-08T07:11:32.398Z,49.70
2023-02-08T07:12:37.296Z,48.10
2023-02-08T07:13:41.958Z,48.30
2023-02-08T07:14:45.074Z,44.70
2023-02-08T07:15:47.928Z,50.80
2023-02-08T07:16:51.860Z,47.30
2023-02-08T07:17:54.740Z,45.40
2023-02-08T07:18:57.618Z,49.00
2023-02-08T07:20:00.469Z,45.90
2023-02-08T07:21:03.887Z,47.70
2023-02-08T07:22:10.259Z,41.00
2023-02-08T07:23:13.108Z,51.00
2023-02-08T07:24:16.007Z,44.30
2023-02-08T07:25:18.889Z,48.30
2023-02-08T07:26:21.863Z,50.40
2023-02-08T07:27:26.077Z,49.60
2023-02-08T07:28:29.697Z,45.60
2023-02-08T07:29:33.388Z,47.70
2023-02-08T07:30:36.693Z,44.10
2023-02-08T07:31:39.643Z,50.10
2023-02-08T07:32:42.499Z,47.70
2023-02-08T07:33:45.355Z,52.10
2023-02-08T07:34:48.189Z,47.80
2023-02-08T07:35:51.308Z,52.60
2023-02-08T07:36:54.153Z,54.20
2023-02-08T07:37:56.993Z,54.90
2023-02-08T07:38:59.846Z,52.50
2023-02-08T07:40:02.843Z,49.70
2023-02-08T07:41:08.796Z,54.30
2023-02-08T07:42:12.047Z,55.70
2023-02-08T07:43:22.284Z,50.80
2023-02-08T07:44:28.956Z,51.70
2023-02-08T07:45:32.323Z,51.20
2023-02-08T07:46:35.179Z,54.90
2023-02-08T07:47:38.034Z,52.70
2023-02-08T07:48:41.160Z,55.80
2023-02-08T07:49:44.152Z,53.80
2023-02-08T07:50:47.009Z,50.10
2023-02-08T07:51:49.876Z,54.10
2023-02-08T07:52:52.852Z,56.40
2023-02-08T07:53:55.697Z,50.40
2023-02-08T07:54:58.552Z,50.20
2023-02-08T07:56:01.760Z,49.50
2023-02-08T07:57:04.782Z,55.00
2023-02-08T07:58:07.680Z,51.00
2023-02-08T07:59:11.467Z,54.50
2023-02-08T08:00:16.660Z,49.00
2023-02-08T08:01:22.560Z,49.20
2023-02-08T08:02:25.673Z,53.90
2023-02-08T08:03:28.922Z,53.40
2023-02-08T08:04:31.800Z,49.40
2023-02-08T08:05:34.629Z,52.80
2023-02-08T08:06:37.521Z,51.50
2023-02-08T08:07:40.405Z,52.70
2023-02-08T08:08:47.405Z,53.70
2023-02-08T08:09:50.324Z,50.30
2023-02-08T08:10:53.265Z,52.30
2023-02-08T08:11:56.304Z,53.40
2023-02-08T08:12:59.194Z,52.60
2023-02-08T08:14:02.053Z,57.70
2023-02-08T08:15:05.829Z,49.10
2023-02-08T08:16:09.214Z,50.10
2023-02-08T08:17:12.166Z,52.80
2023-02-08T08:18:15.518Z,51.40
2023-02-08T08:19:18.419Z,53.50
2023-02-08T08:20:21.373Z,55.80
2023-02-08T08:21:24.193Z,58.90
2023-02-08T08:22:27.443Z,48.00
2023-02-08T08:23:30.623Z,53.50
2023-02-08T08:24:35.869Z,65.70
2023-02-08T08:25:38.795Z,77.80
2023-02-08T08:26:41.678Z,66.90
2023-02-08T08:27:44.746Z,84.80
2023-02-08T08:28:48.167Z,88.20
2023-02-08T08:29:51.158Z,86.90
2023-02-08T08:30:54.048Z,62.10
2023-02-08T08:31:56.915Z,70.30
2023-02-08T08:32:59.763Z,69.30
2023-02-08T08:34:02.691Z,61.10
2023-02-08T08:35:06.573Z,121.20
2023-02-08T08:36:10.167Z,95.00
2023-02-08T08:37:13.010Z,73.90
2023-02-08T08:38:15.874Z,66.40
2023-02-08T08:39:18.673Z,56.10
2023-02-08T08:40:22.286Z,59.80
2023-02-08T08:41:27.717Z,61.80
2023-02-08T08:42:30.612Z,59.80
2023-02-08T08:43:33.542Z,57.90
2023-02-08T08:44:36.439Z,65.20
2023-02-08T08:45:39.398Z,64.40
2023-02-08T08:46:42.310Z,61.70
2023-02-08T08:47:45.209Z,63.00
2023-02-08T08:48:48.194Z,58.20
2023-02-08T08:49:51.342Z,59.50
2023-02-08T08:50:55.357Z,60.60
2023-02-08T08:51:58.345Z,60.50
2023-02-08T08:53:01.197Z,57.80
2023-02-08T08:54:05.768Z,56.90
2023-02-08T08:55:09.035Z,57.70
2023-02-08T08:56:12.300Z,59.40
2023-02-08T08:57:15.142Z,54.50
2023-02-08T08:58:17.978Z,58.40
2023-02-08T08:59:21.124Z,56.50
2023-02-08T09:00:24.175Z,54.80
2023-02-08T09:01:27.123Z,58.00
2023-02-08T09:02:30.034Z,58.80
2023-02-08T09:03:33.290Z,53.50
2023-02-08T09:04:36.352Z,57.50
2023-02-08T09:05:39.337Z,56.30
2023-02-08T09:06:42.430Z,53.50
2023-02-08T09:07:45.312Z,54.90
2023-02-08T09:08:50.261Z,55.30
2023-02-08T09:09:54.294Z,55.50
2023-02-08T09:10:57.285Z,61.00
2023-02-08T09:12:00.141Z,56.10
2023-02-08T09:13:03.113Z,52.30
2023-02-08T09:14:06.525Z,50.60
2023-02-08T09:15:09.673Z,50.70
2023-02-08T09:16:15.546Z,55.10
2023-02-08T09:17:18.679Z,52.90
2023-02-08T09:18:21.552Z,50.10
2023-02-08T09:19:24.855Z,51.70
2023-02-08T09:20:27.960Z,54.30
2023-02-08T09:21:31.771Z,55.80
2023-02-08T09:22:34.673Z,54.30
2023-02-08T09:23:38.440Z,51.20
2023-02-08T09:24:41.342Z,48.70
2023-02-08T09:25:44.248Z,54.20
2023-02-08T09:26:47.176Z,46.70
2023-02-08T09:27:50.077Z,45.80
2023-02-08T09:28:53.322Z,48.70
2023-02-08T09:29:56.173Z,48.40
2023-02-08T09:31:01.883Z,53.30
2023-02-08T09:32:05.048Z,48.40
2023-02-08T09:33:07.904Z,51.30
2023-02-08T09:34:10.757Z,51.40
2023-02-08T09:35:14.978Z,51.10
2023-02-08T09:36:18.705Z,49.80
2023-02-08T09:37:21.575Z,52.60
2023-02-08T09:38:24.509Z,50.60
2023-02-08T09:39:27.507Z,48.70
2023-02-08T09:40:43.096Z,46.30
2023-02-08T09:42:29.503Z,47.80
2023-02-08T09:44:12.846Z,48.40
2023-02-08T09:45:51.070Z,53.60
2023-02-08T09:47:07.230Z,46.90
2023-02-08T09:48:24.431Z,55.00
2023-02-08T09:49:43.455Z,44.40
2023-02-08T09:51:01.188Z,46.60
2023-02-08T09:52:11.571Z,46.80
2023-02-08T09:53:20.530Z,46.30
2023-02-08T09:54:33.580Z,42.90
2023-02-08T09:56:01.441Z,41.90
2023-02-08T09:57:12.052Z,46.30
2023-02-08T09:58:43.163Z,48.80
2023-02-08T09:59:55.758Z,46.10
2023-02-08T10:00:59.603Z,41.10
2023-02-08T10:02:19.011Z,47.40
2023-02-08T10:03:28.653Z,54.10
2023-02-08T10:04:49.974Z,54.20
2023-02-08T10:05:53.091Z,48.10
2023-02-08T10:06:56.969Z,51.10
2023-02-08T10:08:01.063Z,47.00
2023-02-08T10:09:07.423Z,42.20
2023-02-08T10:10:48.232Z,45.70
2023-02-08T10:12:27.971Z,39.60
2023-02-08T10:13:41.435Z,38.30
2023-02-08T10:14:50.533Z,36.60
2023-02-08T10:16:15.218Z,36.30
2023-02-08T10:17:44.069Z,37.60
2023-02-08T10:19:12.150Z,41.80
2023-02-08T10:20:46.428Z,42.50
2023-02-08T10:22:01.595Z,45.10
2023-02-08T10:23:19.426Z,40.40
2023-02-08T10:25:41.675Z,42.30
2023-02-08T10:27:15.363Z,44.50
2023-02-08T10:28:54.185Z,37.90
2023-02-08T10:30:11.382Z,41.80
2023-02-08T10:31:22.879Z,45.80
2023-02-08T10:32:28.748Z,42.60
2023-02-08T10:33:48.826Z,45.30
2023-02-08T10:35:05.356Z,46.90
2023-02-08T10:36:20.020Z,44.90
2023-02-08T10:37:34.975Z,37.90
2023-02-08T10:38:46.425Z,39.30
2023-02-08T10:39:51.179Z,43.90
2023-02-08T10:41:00.125Z,45.20
2023-02-08T10:42:04.724Z,37.30
2023-02-08T10:43:24.659Z,41.80
2023-02-08T10:45:02.089Z,37.80
2023-02-08T10:46:28.095Z,41.30
2023-02-08T10:47:48.543Z,38.70
2023-02-08T10:49:10.178Z,40.00
2023-02-08T10:50:30.143Z,41.10
2023-02-08T10:51:33.384Z,41.60
2023-02-08T10:52:36.282Z,44.90
2023-02-08T10:53:39.226Z,43.40
2023-02-08T10:54:42.121Z,43.60
2023-02-08T10:55:47.639Z,47.50
2023-02-08T10:56:58.291Z,45.20
2023-02-08T10:58:04.408Z,47.50
2023-02-08T10:59:20.292Z,52.20
2023-02-08T11:00:29.003Z,48.00
2023-02-08T11:01:32.582Z,44.20
2023-02-08T11:02:41.121Z,49.10
2023-02-08T11:04:05.645Z,47.50
2023-02-08T11:05:10.201Z,46.90
2023-02-08T11:06:27.436Z,45.70
2023-02-08T11:07:31.756Z,49.10
2023-02-08T11:08:55.229Z,50.90
2023-02-08T11:10:24.589Z,45.90
2023-02-08T11:11:33.886Z,37.50
2023-02-08T11:12:36.835Z,37.60
2023-02-08T11:13:43.003Z,38.70
2023-02-08T11:14:50.595Z,45.00
2023-02-08T11:16:00.551Z,43.60
2023-02-08T11:17:03.589Z,40.70
2023-02-08T11:18:15.979Z,36.50
2023-02-08T11:19:25.227Z,33.50
2023-02-08T11:20:34.808Z,40.90
2023-02-08T11:22:45.921Z,32.00
2023-02-08T11:23:52.546Z,32.50
2023-02-08T11:25:06.165Z,32.90
2023-02-08T11:26:15.409Z,32.40
2023-02-08T11:27:35.728Z,21.70
2023-02-08T11:28:38.611Z,29.90
2023-02-08T11:29:41.518Z,29.20
2023-02-08T11:30:55.607Z,27.10
2023-02-08T11:32:13.528Z,29.00
2023-02-08T11:33:20.245Z,29.10
2023-02-08T11:34:33.127Z,27.10
2023-02-08T11:35:36.230Z,25.90
2023-02-08T11:36:48.068Z,26.30
2023-02-08T11:37:53.666Z,28.80
2023-02-08T11:38:57.746Z,29.80
2023-02-08T11:40:02.520Z,25.50
2023-02-08T11:41:15.858Z,19.50
2023-02-08T11:42:41.419Z,17.80
2023-02-08T11:43:56.120Z,19.70
2023-02-08T11:45:00.033Z,16.80
2023-02-08T11:46:05.700Z,18.80
2023-02-08T11:47:15.351Z,17.10
2023-02-08T11:48:26.039Z,14.50
2023-02-08T11:49:43.126Z,13.50
2023-02-08T11:50:46.157Z,14.20
2023-02-08T11:51:50.071Z,14.80
2023-02-08T11:53:00.280Z,16.00
2023-02-08T11:54:05.817Z,15.20
2023-02-08T11:55:25.451Z,12.60
2023-02-08T11:56:34.159Z,12.10
2023-02-08T11:57:53.249Z,13.70
2023-02-08T11:59:19.242Z,10.90
2023-02-08T12:00:28.357Z,9.60
2023-02-08T12:01:34.676Z,9.80
2023-02-08T12:02:40.300Z,11.80
2023-02-08T12:03:47.395Z,9.60
2023-02-08T12:04:50.900Z,9.00
2023-02-08T12:06:37.986Z,7.70
2023-02-08T12:08:08.361Z,7.10
2023-02-08T12:09:38.371Z,6.50
2023-02-08T12:12:21.942Z,8.20
2023-02-08T12:13:28.265Z,9.10
2023-02-08T12:14:41.539Z,6.10
2023-02-08T12:16:03.786Z,7.30
2023-02-08T12:17:29.148Z,12.60
2023-02-08T12:18:52.661Z,6.40
2023-02-08T12:20:07.487Z,7.00
2023-02-08T12:21:19.314Z,5.90
2023-02-08T12:22:26.120Z,6.20
2023-02-08T12:23:46.900Z,7.00
2023-02-08T12:24:57.768Z,6.20
2023-02-08T12:26:15.904Z,5.60
2023-02-08T12:27:43.609Z,5.00
2023-02-08T12:29:05.920Z,5.50
2023-02-08T12:30:21.006Z,5.60
2023-02-08T12:32:05.452Z,7.00
2023-02-08T12:33:46.586Z,5.30
2023-02-08T12:35:07.922Z,6.90
2023-02-08T12:36:26.080Z,6.30
2023-02-08T12:37:56.987Z,5.90
2023-02-08T12:39:51.067Z,6.30
2023-02-08T12:41:10.492Z,5.50
2023-02-08T12:42:19.184Z,6.10
2023-02-08T12:43:28.040Z,7.20
2023-02-08T12:44:50.068Z,8.00
2023-02-08T12:46:33.213Z,5.20
2023-02-08T12:48:03.696Z,5.20
2023-02-08T12:49:41.404Z,5.20
2023-02-08T12:51:14.304Z,5.70
2023-02-08T12:52:28.698Z,4.30
2023-02-08T12:53:37.735Z,4.90
2023-02-08T12:54:55.079Z,5.70
2023-02-08T12:56:03.777Z,4.80
2023-02-08T12:57:10.945Z,4.60
2023-02-08T12:58:40.565Z,4.30
2023-02-08T12:59:58.934Z,5.20
2023-02-08T13:01:28.809Z,4.80
2023-02-08T13:02:54.784Z,5.50
2023-02-08T13:04:02.336Z,5.70
2023-02-08T13:05:07.433Z,5.20
2023-02-08T13:06:17.433Z,7.60
2023-02-08T13:07:34.164Z,5.80
2023-02-08T13:09:00.762Z,5.30
2023-02-08T13:10:27.020Z,11.10
2023-02-08T13:11:57.497Z,8.60
2023-02-08T13:13:12.463Z,7.80
2023-02-08T13:14:32.469Z,5.60
2023-02-08T13:15:41.221Z,6.80
2023-02-08T13:16:49.062Z,7.00
2023-02-08T13:17:55.520Z,7.50
2023-02-08T13:19:24.694Z,6.50
2023-02-08T13:20:37.802Z,9.00
2023-02-08T13:21:43.773Z,7.60
2023-02-08T13:22:47.360Z,7.40
2023-02-08T13:23:53.204Z,7.60
2023-02-08T13:25:06.865Z,7.70
2023-02-08T13:26:19.397Z,8.20
2023-02-08T13:27:23.936Z,9.70
2023-02-08T13:28:28.200Z,9.30
2023-02-08T13:29:33.320Z,9.70
2023-02-08T13:30:40.192Z,9.30
2023-02-08T13:31:49.719Z,7.40
2023-02-08T13:32:54.317Z,10.80
2023-02-08T13:34:02.311Z,9.40
2023-02-08T13:35:14.260Z,12.80
2023-02-08T13:36:25.947Z,11.60
2023-02-08T13:37:35.366Z,10.90
2023-02-08T13:38:41.338Z,13.30
2023-02-08T13:39:46.647Z,15.80
2023-02-08T13:41:22.081Z,9.80
2023-02-08T13:42:30.312Z,8.40
2023-02-08T13:43:41.843Z,9.70
2023-02-08T13:44:52.278Z,10.70
2023-02-08T13:45:59.931Z,10.10
2023-02-08T13:47:04.918Z,7.80
2023-02-08T13:48:11.695Z,9.10
2023-02-08T13:49:52.694Z,10.40
2023-02-08T13:50:57.283Z,7.70
2023-02-08T13:52:00.265Z,8.60
2023-02-08T13:53:05.432Z,10.00
2023-02-08T13:54:13.771Z,9.00
2023-02-08T13:55:39.281Z,9.00
2023-02-08T13:56:44.629Z,7.90
2023-02-08T13:57:56.301Z,8.70
2023-02-08T13:59:01.305Z,10.00
2023-02-08T14:00:27.094Z,15.30
2023-02-08T14:01:38.061Z,11.80
2023-02-08T14:03:00.239Z,11.10
2023-02-08T14:04:10.063Z,11.10
2023-02-08T14:07:04.776Z,11.70
2023-02-08T14:08:16.841Z,10.20
2023-02-08T14:09:27.097Z,12.20
2023-02-08T14:10:42.607Z,11.10
2023-02-08T14:11:50.578Z,10.80
2023-02-08T14:13:03.132Z,13.10
2023-02-08T14:14:29.255Z,11.40
2023-02-08T14:15:35.180Z,15.60
2023-02-08T14:16:43.438Z,14.00
2023-02-08T14:17:49.780Z,12.30
2023-02-08T14:18:55.239Z,15.30
2023-02-08T14:20:02.899Z,10.80
2023-02-08T14:21:07.599Z,12.70
2023-02-08T14:22:13.457Z,14.50
2023-02-08T14:23:27.076Z,13.10
2023-02-08T14:24:35.708Z,14.60
2023-02-08T14:25:45.702Z,12.70
2023-02-08T14:26:49.866Z,13.60
2023-02-08T14:28:03.199Z,13.00
2023-02-08T14:29:07.219Z,10.50
2023-02-08T14:30:18.907Z,15.20
2023-02-08T14:31:24.097Z,13.40
2023-02-08T14:32:30.391Z,13.00
2023-02-08T14:33:43.355Z,13.90
2023-02-08T14:34:47.078Z,12.80
2023-02-08T14:36:02.928Z,15.10
2023-02-08T14:37:28.371Z,13.80
2023-02-08T14:38:33.930Z,13.00
2023-02-08T14:39:37.542Z,14.10
2023-02-08T14:40:52.524Z,15.70
2023-02-08T14:42:01.282Z,14.70
2023-02-08T14:43:06.133Z,18.40
2023-02-08T14:44:43.983Z,13.10
2023-02-08T14:45:52.727Z,16.40
2023-02-08T14:46:55.609Z,15.70
2023-02-08T14:48:37.729Z,18.00
2023-02-08T14:49:44.946Z,15.60
2023-02-08T14:50:55.708Z,15.70
2023-02-08T14:52:05.479Z,16.00
2023-02-08T14:54:37.007Z,17.90
2023-02-08T14:55:51.092Z,16.10